METAR AND TAF INFORMATION
METAR FOR LIBR
ADDS - METARS form results

(0446 UTC 26 February 2020)
Data provider http://aviationweather.gov/metar/data/
 
METAR text: LIBR 260420Z 16008KT 9999 FEW010 12/10 Q1007
Conditions at: LIBR (BRINDISI/CASALE , IT) observed 0420 UTC 26 February 2020
Temperature: 12.0°C (54°F)
Dewpoint: 10.0°C (50°F) [RH = 88%]
Pressure (altimeter): 29.73 inches Hg (1007.0 mb)
Winds: from the SSE (160 degrees) at 9 MPH (8 knots; 4.1 m/s)
Visibility: 6 or more miles (10+ km)
Ceiling: at least 12,000 feet AGL
Clouds: few clouds at 1000 feet AGL
Weather: no significant weather observed at this time

METAR text: LIBR 260350Z 18013KT 9999 SCT010 12/10 Q1007
Conditions at: LIBR (BRINDISI/CASALE , IT) observed 0350 UTC 26 February 2020
Temperature: 12.0°C (54°F)
Dewpoint: 10.0°C (50°F) [RH = 88%]
Pressure (altimeter): 29.73 inches Hg (1007.0 mb)
Winds: from the S (180 degrees) at 15 MPH (13 knots; 6.7 m/s)
Visibility: 6 or more miles (10+ km)
Ceiling: at least 12,000 feet AGL
Clouds: scattered clouds at 1000 feet AGL
Weather: no significant weather observed at this time

Forecast for: LIBR (BRINDISI/CASALE , IT)
Text: TAF LIBR 252300Z 2600/2624 19013KT 9999 SCT010
Forecast period: 0000 to 1400 UTC 26 February 2020
Forecast type: FROM: standard forecast or significant change
Winds: from the S (190 degrees) at 15 MPH (13 knots; 6.7 m/s)
Visibility: 6 or more miles 10+ km)
Ceiling: at least 12,000 feet AGL
Clouds: scattered clouds at 1000 feet AGL
Weather: no significant weather forecast for this period
Text: BECMG 2614/2616 25015G25KT
Forecast period: 1400 UTC 26 February 2020 to 0000 UTC 27 February 2020
Forecast type: BECOMING: Conditions expected to become as follows by 1600 UTC 26 February 2020
Winds: from the WSW (250 degrees) at 17 MPH (15 knots; 7.7 m/s)
gusting to 29 MPH (25 knots; 12.9 m/s)
Visibility: 6 or more miles 10+ km)
Ceiling: at least 12,000 feet AGL
Clouds: scattered clouds at 1000 feet AGL
Weather: no significant weather forecast for this period

 AIRPORT MAP

 RUNWAY INFORMATION
Runway 05 Runway length 6132 ft Runway width 148 ft
Runway elevation 46 ft Runway displaced threshold 0 ft Runway heading 53
Runway 23 Runway length 6132 ft Runway width 148 ft
Runway elevation 13 ft Runway displaced threshold 230 ft Runway heading 233
Runway 13 Runway length 8307 ft Runway width 148 ft
Runway elevation 29 ft Runway displaced threshold 0 ft Runway heading 137
Runway 31 Runway length 8307 ft Runway width 148 ft
Runway elevation 26 ft Runway displaced threshold 0 ft Runway heading 317

 AIRPORT FREQUENCIES
Type APP Name BRINDISI A Frequency 36.365 MHZ
Type APP Name BRINDISI A Frequency 118.4 MHZ
Type GND Name GND Frequency 31.355 MHZ
Type ILS RWY 32 Name Frequency 109.5 MHZ
Type TWR Name BRINDISI T Frequency 118.1 MHZ

 AIRPORT NEAR NAVIGATION AIDS
Type VORTAC Name Brindisi Frequency 113200 KHZ
Type NDB Name Brindisi Frequency 364 KHZ



Powered by Virtual Airlines Manager [v2.6.2]